Time;durP1;ratioP1;P1;durP2;ratioP2;P2;SDS_P1;SDS_P2;PMS_P1;PMS_P2;Temp;Humidity;BMP_temperature;BMP_pressure;BME280_temperature;BME280_humidity;BME280_pressure;Samples;Min_cycle;Max_cycle;Signal;HPM_P1;HPM_P2
2022/03/30 00:02:37;;;;;;;2.83;1.20;;;14.90;99.90;;;;;;6331468;22;20202;-91
2022/03/30 00:05:15;;;;;;;1.10;1.00;;;14.80;99.90;;;;;;6332676;22;20170;-93
2022/03/30 00:07:59;;;;;;;1.57;1.30;;;15.00;99.90;;;;;;6331807;22;20174;-91
2022/03/30 00:10:35;;;;;;;2.73;1.60;;;15.00;99.90;;;;;;6329587;22;20237;-92
2022/03/30 00:13:06;;;;;;;2.63;1.23;;;14.90;99.90;;;;;;6325305;22;20178;-92
2022/03/30 00:16:04;;;;;;;3.97;1.07;;;14.60;99.90;;;;;;6330157;22;20181;-93
2022/03/30 00:21:36;;;;;;;1.70;1.30;;;14.80;99.90;;;;;;6279915;22;20259;-92
2022/03/30 00:24:09;;;;;;;2.70;1.20;;;14.90;99.90;;;;;;6295073;22;20158;-92
2022/03/30 00:29:33;;;;;;;2.27;1.27;;;14.50;99.90;;;;;;6296286;22;20179;-91
2022/03/30 00:32:11;;;;;;;2.30;1.30;;;14.30;99.90;;;;;;6278286;22;20198;-90
2022/03/30 00:34:42;;;;;;;1.33;1.03;;;14.20;99.90;;;;;;6282507;22;20245;-91
2022/03/30 00:37:13;;;;;;;2.43;1.30;;;14.20;99.90;;;;;;6280734;22;20179;-92
2022/03/30 00:39:46;;;;;;;3.23;1.73;;;14.00;99.90;;;;;;6282131;22;20175;-91
2022/03/30 00:42:19;;;;;;;2.90;1.60;;;13.90;99.90;;;;;;6280825;22;20653;-92
2022/03/30 00:44:50;;;;;;;2.30;1.60;;;14.00;99.90;;;;;;6280761;22;20175;-92
2022/03/30 00:47:25;;;;;;;2.63;1.30;;;14.00;99.90;;;;;;6279879;22;20201;-92
2022/03/30 00:49:56;;;;;;;4.63;2.13;;;13.90;99.90;;;;;;6282399;22;20170;-92
2022/03/30 00:52:29;;;;;;;3.00;1.93;;;14.00;99.90;;;;;;6283189;22;20198;-93
2022/03/30 00:55:00;;;;;;;5.83;2.50;;;14.10;99.90;;;;;;6283593;22;20163;-91
2022/03/30 00:57:32;;;;;;;3.93;2.83;;;14.30;99.90;;;;;;6289265;22;20175;-92
2022/03/30 01:00:05;;;;;;;5.50;3.20;;;14.10;99.90;;;;;;6302379;22;20167;-91
2022/03/30 01:02:41;;;;;;;6.07;3.83;;;14.10;99.90;;;;;;6296983;22;20213;-91
2022/03/30 01:05:13;;;;;;;6.33;3.63;;;14.10;99.90;;;;;;6286042;22;20158;-91
2022/03/30 01:07:56;;;;;;;4.73;3.40;;;14.00;99.90;;;;;;6277350;22;20214;-90
2022/03/30 01:10:28;;;;;;;6.53;3.60;;;13.90;99.90;;;;;;6287430;22;20214;-91
2022/03/30 01:13:01;;;;;;;7.00;3.77;;;13.90;99.90;;;;;;6311560;22;20178;-92
2022/03/30 01:15:33;;;;;;;4.00;3.60;;;13.90;99.90;;;;;;6321341;22;20178;-91
2022/03/30 01:18:08;;;;;;;4.60;3.50;;;13.50;99.90;;;;;;6327707;22;20178;-93
2022/03/30 01:20:40;;;;;;;5.40;3.27;;;13.40;99.90;;;;;;6320143;22;20166;-90
2022/03/30 01:23:14;;;;;;;4.60;3.17;;;13.20;99.90;;;;;;6318388;22;20198;-91
2022/03/30 01:25:46;;;;;;;5.00;3.57;;;13.10;99.90;;;;;;6290122;22;20177;-91
2022/03/30 01:28:19;;;;;;;5.40;3.50;;;13.10;99.90;;;;;;6321886;22;20165;-92
2022/03/30 01:33:38;;;;;;;5.03;3.23;;;12.90;99.90;;;;;;6325460;22;20167;-91
2022/03/30 01:36:09;;;;;;;5.30;2.83;;;12.80;99.90;;;;;;6322044;22;20174;-91
2022/03/30 01:38:47;;;;;;;5.17;3.07;;;12.80;99.90;;;;;;6324560;22;20173;-91
2022/03/30 01:41:31;;;;;;;4.20;2.93;;;12.70;99.90;;;;;;6333272;22;20170;-91
2022/03/30 01:47:04;;;;;;;4.37;3.50;;;12.70;99.90;;;;;;6318977;22;20174;-91
2022/03/30 01:49:36;;;;;;;8.30;3.10;;;12.70;99.90;;;;;;6329464;22;20241;-91
2022/03/30 01:52:09;;;;;;;3.87;3.03;;;12.70;99.90;;;;;;6322203;22;20208;-92
2022/03/30 01:54:43;;;;;;;5.57;3.40;;;12.70;99.90;;;;;;6314350;22;20219;-92
2022/03/30 01:59:57;;;;;;;5.33;3.17;;;12.60;99.90;;;;;;6293503;22;20216;-92
2022/03/30 02:02:29;;;;;;;5.43;3.63;;;12.50;99.90;;;;;;6328036;22;20213;-92
2022/03/30 02:05:01;;;;;;;4.87;3.47;;;12.50;99.90;;;;;;6307568;22;20215;-92
2022/03/30 02:07:34;;;;;;;4.53;3.30;;;12.40;99.90;;;;;;6292171;22;20189;-91
2022/03/30 02:10:12;;;;;;;4.53;3.20;;;12.30;99.90;;;;;;6297993;22;20175;-91
2022/03/30 02:12:51;;;;;;;5.40;3.60;;;12.30;99.90;;;;;;6291237;22;20167;-92
2022/03/30 02:15:23;;;;;;;4.63;3.37;;;12.20;99.90;;;;;;6286807;22;20175;-91
2022/03/30 02:17:56;;;;;;;4.87;2.90;;;12.20;99.90;;;;;;6291980;22;20175;-90
2022/03/30 02:20:28;;;;;;;4.93;3.40;;;12.10;99.90;;;;;;6293720;22;20175;-91
2022/03/30 02:26:01;;;;;;;5.67;3.00;;;12.00;99.90;;;;;;6298428;22;20214;-91
2022/03/30 02:28:36;;;;;;;5.17;3.27;;;11.90;99.90;;;;;;6294947;22;20229;-91
2022/03/30 02:33:50;;;;;;;5.20;3.00;;;11.80;99.90;;;;;;6234249;23;20534;-92
2022/03/30 02:36:22;;;;;;;7.70;3.50;;;11.90;99.90;;;;;;6231499;23;20205;-90
2022/03/30 02:38:55;;;;;;;4.83;2.80;;;11.80;99.90;;;;;;6237195;23;20181;-90
2022/03/30 02:44:08;;;;;;;4.70;2.97;;;11.60;99.90;;;;;;6335954;22;20238;-92
2022/03/30 02:46:39;;;;;;;9.73;3.13;;;11.60;99.90;;;;;;6335653;22;20165;-91
2022/03/30 02:49:11;;;;;;;4.97;3.27;;;11.60;99.90;;;;;;6335034;22;20178;-91
2022/03/30 02:51:44;;;;;;;7.73;3.07;;;11.60;99.90;;;;;;6332223;22;20181;-91
2022/03/30 02:56:55;;;;;;;4.67;2.73;;;11.60;99.90;;;;;;6302242;22;20237;-91
2022/03/30 02:59:57;;;;;;;6.43;3.20;;;11.50;99.90;;;;;;6304459;22;20197;-91
2022/03/30 03:02:31;;;;;;;5.73;3.07;;;11.60;99.90;;;;;;6304513;22;20162;-92
2022/03/30 03:05:03;;;;;;;6.20;3.03;;;11.60;99.90;;;;;;6297119;22;20174;-92
2022/03/30 03:07:39;;;;;;;4.70;2.80;;;11.60;99.90;;;;;;6291262;22;20175;-92
2022/03/30 03:12:47;;;;;;;4.53;2.80;;;11.50;99.90;;;;;;6212950;22;20216;-91
2022/03/30 03:15:23;;;;;;;4.90;3.10;;;11.40;99.90;;;;;;6253157;22;20194;-92
2022/03/30 03:20:59;;;;;;;7.00;2.80;;;11.30;99.90;;;;;;6245875;22;20315;-92
2022/03/30 03:26:24;;;;;;;3.90;3.03;;;11.20;99.90;;;;;;6330669;22;20209;-91
2022/03/30 03:42:46;;;;;;;5.60;2.83;;;10.90;99.90;;;;;;6315537;22;20205;-91
2022/03/30 03:45:19;;;;;;;2.80;2.27;;;10.90;99.90;;;;;;6335572;22;20162;-90
2022/03/30 03:47:51;;;;;;;3.40;2.00;;;10.80;99.90;;;;;;6334078;22;20218;-92
2022/03/30 03:53:02;;;;;;;6.93;2.30;;;10.60;99.90;;;;;;6289541;22;20197;-93
2022/03/30 03:55:36;;;;;;;3.27;2.00;;;10.50;99.90;;;;;;6334751;22;20177;-92
2022/03/30 04:09:00;;;;;;;3.83;2.13;;;10.20;99.90;;;;;;6334109;22;20216;-92
2022/03/30 04:11:33;;;;;;;4.37;2.30;;;10.10;99.90;;;;;;6330216;22;20500;-90
2022/03/30 04:14:19;;;;;;;3.80;1.90;;;10.10;99.90;;;;;;6328547;22;20192;-90
2022/03/30 04:22:23;;;;;;;2.83;1.93;;;9.90;99.90;;;;;;6333669;22;20161;-91
2022/03/30 04:27:51;;;;;;;3.00;1.83;;;9.90;99.90;;;;;;6326188;22;20187;-91
2022/03/30 04:33:03;;;;;;;2.33;1.60;;;9.80;99.90;;;;;;6240387;23;20226;-92
2022/03/30 04:35:45;;;;;;;3.33;1.50;;;9.80;99.90;;;;;;6234807;23;20173;-92
2022/03/30 04:38:17;;;;;;;2.13;1.37;;;9.70;99.90;;;;;;6233230;23;20176;-91
2022/03/30 04:43:49;;;;;;;2.30;1.30;;;9.70;99.90;;;;;;6231556;23;20199;-90
2022/03/30 04:46:21;;;;;;;1.87;1.30;;;9.80;99.90;;;;;;6237642;23;20221;-90
2022/03/30 04:48:54;;;;;;;3.40;1.10;;;9.80;99.90;;;;;;6232812;23;20169;-90
2022/03/30 04:56:45;;;;;;;3.20;1.40;;;9.90;99.90;;;;;;6290379;22;20462;-90
2022/03/30 05:04:42;;;;;;;3.77;1.13;;;9.90;99.90;;;;;;6317876;22;20238;-91
2022/03/30 05:07:14;;;;;;;4.83;1.63;;;10.00;99.90;;;;;;6314934;22;20502;-92
2022/03/30 05:09:46;;;;;;;3.47;1.67;;;10.00;99.90;;;;;;6315826;22;20182;-93
2022/03/30 05:12:20;;;;;;;1.87;1.30;;;10.00;99.90;;;;;;6316083;22;20178;-91
2022/03/30 05:14:52;;;;;;;1.57;1.10;;;10.00;99.90;;;;;;6332967;22;20248;-90
2022/03/30 05:17:32;;;;;;;1.97;1.20;;;10.00;99.90;;;;;;6330581;22;20199;-91
2022/03/30 05:22:50;;;;;;;1.53;1.20;;;9.70;99.90;;;;;;6332746;22;20158;-91
2022/03/30 05:25:22;;;;;;;2.47;1.10;;;9.70;99.90;;;;;;6332263;22;20186;-91
2022/03/30 05:27:55;;;;;;;3.20;1.13;;;9.60;99.90;;;;;;6329905;22;20174;-90
2022/03/30 05:30:27;;;;;;;3.47;1.33;;;9.60;99.90;;;;;;6291445;22;20350;-91
2022/03/30 05:32:58;;;;;;;3.17;1.10;;;9.50;99.90;;;;;;6316506;22;20222;-91
2022/03/30 05:35:30;;;;;;;2.80;1.00;;;9.50;99.90;;;;;;6289815;22;20633;-91
2022/03/30 05:38:09;;;;;;;3.97;1.23;;;9.40;99.90;;;;;;6315542;22;20186;-91
2022/03/30 05:40:41;;;;;;;3.93;1.40;;;9.40;99.90;;;;;;6263436;22;20217;-91
2022/03/30 05:43:15;;;;;;;3.03;1.13;;;9.50;99.90;;;;;;6284045;22;20516;-91
2022/03/30 05:45:47;;;;;;;3.47;1.10;;;9.40;99.90;;;;;;6283513;22;20191;-91
2022/03/30 05:48:18;;;;;;;2.97;1.13;;;9.40;99.90;;;;;;6280114;22;20197;-90
2022/03/30 05:50:51;;;;;;;4.20;1.20;;;9.30;99.90;;;;;;6283120;22;20174;-90
2022/03/30 05:53:23;;;;;;;3.20;1.13;;;9.30;99.90;;;;;;6289268;22;20182;-90
2022/03/30 05:58:38;;;;;;;3.50;1.80;;;9.20;99.90;;;;;;6291117;22;20209;-91
2022/03/30 06:01:09;;;;;;;5.77;1.60;;;9.10;99.90;;;;;;6314597;22;20236;-90
2022/03/30 06:03:40;;;;;;;4.83;1.33;;;9.10;99.90;;;;;;6315065;22;20185;-90
2022/03/30 06:06:17;;;;;;;3.80;1.20;;;9.10;99.90;;;;;;6314389;22;20167;-89
2022/03/30 06:08:49;;;;;;;5.30;2.17;;;9.00;99.90;;;;;;6324378;22;20232;-90
2022/03/30 06:11:21;;;;;;;4.10;1.10;;;9.00;99.90;;;;;;6323976;22;20177;-91
2022/03/30 06:14:00;;;;;;;6.27;1.50;;;9.00;99.90;;;;;;6322918;22;20166;-91
2022/03/30 06:16:38;;;;;;;4.93;1.20;;;8.90;99.90;;;;;;6326658;22;20203;-91
2022/03/30 06:19:11;;;;;;;3.17;1.43;;;8.90;99.90;;;;;;6324736;22;20183;-92
2022/03/30 06:21:47;;;;;;;5.03;1.20;;;8.90;99.90;;;;;;6328369;22;20163;-91
2022/03/30 06:24:18;;;;;;;3.80;1.17;;;8.90;99.90;;;;;;6327612;22;20186;-90
2022/03/30 06:26:50;;;;;;;5.60;1.80;;;8.80;99.90;;;;;;6326318;22;20177;-91
2022/03/30 06:29:40;;;;;;;4.90;1.30;;;8.80;99.90;;;;;;6325379;22;20177;-91
2022/03/30 06:32:11;;;;;;;3.93;1.33;;;8.70;99.90;;;;;;6328630;22;20174;-91
2022/03/30 06:34:45;;;;;;;5.77;1.20;;;8.70;99.90;;;;;;6329550;22;20178;-90
2022/03/30 06:37:19;;;;;;;6.63;1.77;;;8.70;99.90;;;;;;6327018;22;20182;-91
2022/03/30 06:39:52;;;;;;;3.90;0.97;;;8.70;99.90;;;;;;6325764;22;20174;-91
2022/03/30 06:42:23;;;;;;;2.40;0.90;;;8.60;99.90;;;;;;6330620;22;20166;-91
2022/03/30 06:45:04;;;;;;;7.37;1.17;;;8.50;99.90;;;;;;6329445;22;20201;-91
2022/03/30 06:47:46;;;;;;;5.07;1.10;;;8.50;99.90;;;;;;6326790;22;20199;-89
2022/03/30 06:50:18;;;;;;;3.67;1.10;;;8.50;99.90;;;;;;6325325;22;20197;-92
2022/03/30 06:52:50;;;;;;;5.07;1.03;;;8.50;99.90;;;;;;6323512;22;20174;-91
2022/03/30 06:55:37;;;;;;;3.87;1.40;;;8.50;99.90;;;;;;6265568;22;20618;-93
2022/03/30 06:58:08;;;;;;;2.97;1.27;;;8.60;99.90;;;;;;6250155;22;20176;-90
2022/03/30 07:00:44;;;;;;;3.93;1.20;;;8.50;99.90;;;;;;6264285;23;20182;-90
2022/03/30 07:03:18;;;;;;;8.27;1.30;;;8.50;99.90;;;;;;6268462;22;20206;-91
2022/03/30 07:05:49;;;;;;;5.23;0.83;;;8.50;99.90;;;;;;6266615;23;20219;-92
2022/03/30 07:11:13;;;;;;;3.03;1.23;;;8.50;99.90;;;;;;6271233;22;20156;-89
2022/03/30 07:13:59;;;;;;;3.43;0.77;;;8.40;99.90;;;;;;6267681;23;20199;-89
2022/03/30 07:16:40;;;;;;;5.50;0.90;;;8.40;99.90;;;;;;6268637;23;20167;-89
2022/03/30 07:21:58;;;;;;;3.37;1.00;;;8.30;99.90;;;;;;6266595;23;20172;-89
2022/03/30 07:24:30;;;;;;;2.57;1.97;;;8.30;99.90;;;;;;6266180;23;20172;-90
2022/03/30 07:27:10;;;;;;;2.73;1.00;;;8.30;99.90;;;;;;6265742;22;20176;-91
2022/03/30 07:29:44;;;;;;;3.60;1.00;;;8.20;99.90;;;;;;6262069;22;20242;-91
2022/03/30 07:35:04;;;;;;;3.87;1.67;;;8.30;99.90;;;;;;6263711;22;20160;-91
2022/03/30 07:40:33;;;;;;;6.10;1.20;;;8.30;99.90;;;;;;6271417;22;20179;-90
2022/03/30 07:43:06;;;;;;;4.93;1.10;;;8.40;99.90;;;;;;6264258;23;20174;-91
2022/03/30 07:45:43;;;;;;;3.40;1.07;;;8.40;99.90;;;;;;6268709;22;20206;-89
2022/03/30 07:48:20;;;;;;;4.90;1.00;;;8.30;99.90;;;;;;6265882;23;20187;-91
2022/03/30 07:50:52;;;;;;;4.33;0.73;;;8.40;99.90;;;;;;6269257;23;20613;-90
2022/03/30 07:53:36;;;;;;;6.00;1.13;;;8.40;99.90;;;;;;6271696;22;20182;-91
2022/03/30 07:58:56;;;;;;;10.50;1.87;;;8.40;99.90;;;;;;6292746;22;20163;-88
2022/03/30 08:01:28;;;;;;;5.30;1.10;;;8.30;99.90;;;;;;6295829;22;20221;-90
2022/03/30 08:04:17;;;;;;;5.90;1.30;;;8.30;99.90;;;;;;6296365;22;20187;-90
2022/03/30 08:06:51;;;;;;;4.13;0.90;;;8.30;99.90;;;;;;6297476;22;20211;-90
2022/03/30 08:09:22;;;;;;;11.33;1.50;;;8.40;99.90;;;;;;6294200;22;20204;-91
2022/03/30 08:14:40;;;;;;;5.70;1.37;;;8.30;99.90;;;;;;6296731;22;20512;-90
2022/03/30 08:17:13;;;;;;;6.53;1.47;;;8.40;99.90;;;;;;6302406;22;20174;-91
2022/03/30 08:19:47;;;;;;;4.73;1.30;;;8.30;99.90;;;;;;6303957;22;20175;-90
2022/03/30 08:22:26;;;;;;;7.60;1.40;;;8.30;99.90;;;;;;6303534;22;20201;-89
2022/03/30 08:25:02;;;;;;;8.17;1.27;;;8.30;99.90;;;;;;6303679;22;20244;-90
2022/03/30 08:27:35;;;;;;;5.53;1.33;;;8.20;99.90;;;;;;6299188;22;20183;-91
2022/03/30 08:30:08;;;;;;;7.93;1.73;;;8.30;99.90;;;;;;6295337;22;20206;-90
2022/03/30 08:32:47;;;;;;;6.93;1.40;;;8.30;99.90;;;;;;6268636;22;20175;-92
2022/03/30 08:35:21;;;;;;;6.47;1.73;;;8.30;99.90;;;;;;6288396;22;20542;-92
2022/03/30 08:37:54;;;;;;;7.50;1.63;;;8.30;99.90;;;;;;6281977;22;20187;-92
2022/03/30 08:40:27;;;;;;;8.73;1.67;;;8.30;99.90;;;;;;6288922;22;20189;-90
2022/03/30 08:45:43;;;;;;;15.60;1.50;;;8.30;99.90;;;;;;6306050;22;20206;-90
2022/03/30 08:48:14;;;;;;;6.00;1.37;;;8.30;99.90;;;;;;6311238;22;20232;-90
2022/03/30 08:50:49;;;;;;;6.83;1.70;;;8.20;99.90;;;;;;6312287;22;20212;-91
2022/03/30 08:59:06;;;;;;;10.03;1.50;;;8.10;99.90;;;;;;6320028;22;20171;-90
2022/03/30 09:01:39;;;;;;;6.70;1.53;;;8.10;99.90;;;;;;6313714;22;20172;-91
2022/03/30 09:04:14;;;;;;;3.83;1.50;;;8.10;99.90;;;;;;6310174;22;20249;-89
2022/03/30 09:06:50;;;;;;;9.27;2.20;;;8.10;99.90;;;;;;6312275;22;20217;-91
2022/03/30 09:09:30;;;;;;;7.20;1.13;;;8.10;99.90;;;;;;6310373;22;20189;-92
2022/03/30 09:12:02;;;;;;;8.80;1.60;;;8.20;99.90;;;;;;6311514;22;20227;-90
2022/03/30 09:14:37;;;;;;;8.47;1.43;;;8.10;99.90;;;;;;6311154;22;20241;-91
2022/03/30 09:17:09;;;;;;;8.00;1.50;;;8.10;99.90;;;;;;6310578;22;20173;-90
2022/03/30 09:19:41;;;;;;;7.63;1.87;;;8.10;99.90;;;;;;6312177;22;20193;-90
2022/03/30 09:22:14;;;;;;;6.47;1.47;;;8.10;99.90;;;;;;6312016;22;20174;-91
2022/03/30 09:25:02;;;;;;;10.40;1.70;;;8.10;99.90;;;;;;6313412;22;20593;-90
2022/03/30 09:27:34;;;;;;;6.07;1.37;;;8.10;99.90;;;;;;6311046;22;20201;-89
2022/03/30 09:32:52;;;;;;;9.10;1.73;;;8.10;99.90;;;;;;6311790;22;20197;-91
2022/03/30 09:35:27;;;;;;;6.30;1.60;;;8.10;99.90;;;;;;6312137;22;20181;-91
2022/03/30 09:38:05;;;;;;;6.73;1.30;;;8.10;99.90;;;;;;6313758;22;20174;-90
2022/03/30 09:40:42;;;;;;;7.10;1.47;;;8.10;99.90;;;;;;6315349;22;20178;-90
2022/03/30 09:43:23;;;;;;;7.47;1.37;;;8.00;99.90;;;;;;6321661;22;20185;-92
2022/03/30 09:46:06;;;;;;;6.23;1.40;;;8.00;99.90;;;;;;6324060;22;20523;-91
2022/03/30 09:48:43;;;;;;;7.53;1.50;;;8.00;99.90;;;;;;6324151;22;20184;-89
2022/03/30 09:51:15;;;;;;;6.57;1.73;;;7.90;99.90;;;;;;6313294;22;20543;-91
2022/03/30 09:53:49;;;;;;;10.17;1.83;;;7.90;99.90;;;;;;6316555;22;20166;-90
2022/03/30 09:56:21;;;;;;;5.50;1.27;;;7.80;99.90;;;;;;6314205;22;20197;-91
2022/03/30 09:59:05;;;;;;;9.63;1.53;;;7.80;99.90;;;;;;6312601;22;20192;-89
2022/03/30 10:01:37;;;;;;;5.37;1.37;;;7.80;99.90;;;;;;6313199;22;20203;-91
2022/03/30 10:04:09;;;;;;;8.70;1.73;;;7.70;99.90;;;;;;6313728;22;20256;-90
2022/03/30 10:06:40;;;;;;;5.80;1.33;;;7.70;99.90;;;;;;6313822;22;20209;-90
2022/03/30 10:09:17;;;;;;;11.07;1.70;;;7.70;99.90;;;;;;6312663;22;20179;-91
2022/03/30 10:11:49;;;;;;;7.50;1.80;;;7.70;99.90;;;;;;6313389;22;20208;-91
2022/03/30 10:14:19;;;;;;;4.10;1.50;;;7.70;99.90;;;;;;6313867;22;20175;-90
2022/03/30 10:16:51;;;;;;;11.57;1.63;;;7.70;99.90;;;;;;6313095;22;20175;-90
2022/03/30 10:19:23;;;;;;;5.57;1.33;;;7.70;99.90;;;;;;6311605;22;20174;-90
2022/03/30 10:22:04;;;;;;;7.60;1.73;;;7.70;99.90;;;;;;6313397;22;20166;-91
2022/03/30 10:25:02;;;;;;;4.57;1.33;;;7.70;99.90;;;;;;6313128;22;20583;-90
2022/03/30 10:27:41;;;;;;;9.03;1.40;;;7.70;99.90;;;;;;6312705;22;20282;-91
2022/03/30 10:30:13;;;;;;;8.73;1.80;;;7.70;99.90;;;;;;6313553;22;20584;-92
2022/03/30 10:32:55;;;;;;;10.00;1.83;;;7.70;99.90;;;;;;6315397;22;20162;-91
2022/03/30 10:35:41;;;;;;;11.27;2.27;;;7.70;99.90;;;;;;6312777;22;20284;-92
2022/03/30 10:38:13;;;;;;;4.47;1.23;;;7.70;99.90;;;;;;6311283;22;20512;-92
2022/03/30 10:40:46;;;;;;;9.40;1.67;;;7.70;99.90;;;;;;6311870;22;20186;-90
2022/03/30 10:43:27;;;;;;;7.97;1.43;;;7.60;99.90;;;;;;6312457;22;20197;-91
2022/03/30 10:46:02;;;;;;;7.53;1.70;;;7.70;99.90;;;;;;6312883;22;20190;-92
2022/03/30 10:48:40;;;;;;;7.63;1.53;;;7.70;99.90;;;;;;6310809;22;20190;-90
2022/03/30 10:51:19;;;;;;;7.13;1.50;;;7.70;99.90;;;;;;6312195;22;20188;-91
2022/03/30 10:53:51;;;;;;;7.27;2.07;;;7.70;99.90;;;;;;6312828;22;20174;-91
2022/03/30 10:56:33;;;;;;;11.97;1.90;;;7.60;99.90;;;;;;6312802;22;20167;-91
2022/03/30 10:59:12;;;;;;;8.27;1.50;;;7.60;99.90;;;;;;6311905;22;20173;-90
2022/03/30 11:01:46;;;;;;;6.23;1.50;;;7.60;99.90;;;;;;6312691;22;20179;-90
2022/03/30 11:04:24;;;;;;;10.43;1.57;;;7.60;99.90;;;;;;6311193;22;20185;-91
2022/03/30 11:07:38;;;;;;;4.37;1.03;;;7.60;99.90;;;;;;6313301;22;20194;-91
2022/03/30 11:10:28;;;;;;;7.77;2.37;;;7.60;99.90;;;;;;6312707;22;20539;-91
2022/03/30 11:13:11;;;;;;;4.53;1.77;;;7.60;99.90;;;;;;6312394;22;20187;-90
2022/03/30 11:16:13;;;;;;;8.60;1.57;;;7.60;99.90;;;;;;6312708;22;20174;-90
2022/03/30 11:19:02;;;;;;;5.40;1.70;;;7.60;99.90;;;;;;6311917;22;20197;-91
2022/03/30 11:21:34;;;;;;;10.53;1.47;;;7.60;99.90;;;;;;6312281;22;20194;-89
2022/03/30 11:24:14;;;;;;;6.80;1.50;;;7.60;99.90;;;;;;6312475;22;20222;-90
2022/03/30 11:27:32;;;;;;;5.40;1.23;;;7.60;99.90;;;;;;6312204;22;20201;-90
2022/03/30 11:30:15;;;;;;;7.40;1.70;;;7.70;99.90;;;;;;6309000;22;20634;-91
2022/03/30 11:33:02;;;;;;;5.80;1.43;;;7.70;99.90;;;;;;6312394;22;20170;-91
2022/03/30 11:35:37;;;;;;;6.23;1.40;;;7.70;99.90;;;;;;6309986;22;20176;-90
2022/03/30 11:38:11;;;;;;;6.07;1.73;;;7.70;99.90;;;;;;6311838;22;20202;-92
2022/03/30 11:40:44;;;;;;;5.40;1.47;;;7.70;99.90;;;;;;6311350;22;20223;-90
2022/03/30 11:43:18;;;;;;;6.50;1.40;;;7.70;99.90;;;;;;6312047;22;20181;-92
2022/03/30 11:46:09;;;;;;;9.03;1.83;;;7.70;99.90;;;;;;6317190;22;20186;-92
2022/03/30 11:48:41;;;;;;;8.93;1.60;;;7.80;99.90;;;;;;6311952;22;20221;-91
2022/03/30 11:51:19;;;;;;;6.97;1.33;;;7.80;99.90;;;;;;6313230;22;20178;-90
2022/03/30 11:53:50;;;;;;;10.20;1.67;;;7.80;99.90;;;;;;6313801;22;20182;-91
2022/03/30 11:56:21;;;;;;;9.50;1.57;;;7.80;99.90;;;;;;6327385;22;20620;-92
2022/03/30 11:58:58;;;;;;;9.93;1.40;;;7.80;99.90;;;;;;6327488;22;20186;-93
2022/03/30 12:01:31;;;;;;;5.20;1.20;;;7.80;99.90;;;;;;6320602;22;20208;-90
2022/03/30 12:04:04;;;;;;;5.93;1.43;;;7.70;99.90;;;;;;6314313;22;20174;-91
2022/03/30 12:06:35;;;;;;;5.13;1.30;;;7.70;99.90;;;;;;6313928;22;20163;-91
2022/03/30 12:09:07;;;;;;;5.40;1.73;;;7.60;99.90;;;;;;6312587;22;20178;-90
2022/03/30 12:11:38;;;;;;;9.90;1.50;;;7.70;99.90;;;;;;6312743;22;20169;-91
2022/03/30 12:14:11;;;;;;;7.17;1.50;;;7.60;99.90;;;;;;6312234;22;20605;-90
2022/03/30 12:16:45;;;;;;;6.30;1.37;;;7.60;99.90;;;;;;6311868;22;20190;-90
2022/03/30 12:19:19;;;;;;;7.63;1.93;;;7.60;99.90;;;;;;6310337;22;20788;-91
2022/03/30 12:21:50;;;;;;;8.03;1.60;;;7.60;99.90;;;;;;6312114;22;20177;-91
2022/03/30 12:24:22;;;;;;;12.27;2.13;;;7.70;99.90;;;;;;6311283;22;20166;-91
2022/03/30 12:26:54;;;;;;;6.67;1.70;;;7.60;99.90;;;;;;6311716;22;20252;-91
2022/03/30 12:29:31;;;;;;;4.67;1.63;;;7.50;99.90;;;;;;6310483;22;20179;-91
2022/03/30 12:32:05;;;;;;;8.27;1.70;;;7.40;99.90;;;;;;6311895;22;20174;-91
2022/03/30 12:34:36;;;;;;;9.33;1.43;;;7.40;99.90;;;;;;6310873;22;20174;-91
2022/03/30 12:37:09;;;;;;;9.80;2.07;;;7.30;99.90;;;;;;6311152;22;20163;-91
2022/03/30 12:39:43;;;;;;;9.90;2.13;;;7.20;99.90;;;;;;6311307;22;20174;-90
2022/03/30 12:42:26;;;;;;;8.50;1.33;;;7.20;99.90;;;;;;6311200;22;20160;-91
2022/03/30 12:45:02;;;;;;;6.33;1.63;;;7.20;99.90;;;;;;6311115;22;20174;-91
2022/03/30 12:47:36;;;;;;;8.60;1.67;;;7.20;99.90;;;;;;6310582;22;20194;-91
2022/03/30 12:50:10;;;;;;;5.40;1.17;;;7.20;99.90;;;;;;6315791;22;20263;-90
2022/03/30 12:52:43;;;;;;;5.43;1.87;;;7.30;99.90;;;;;;6311327;22;20174;-89
2022/03/30 12:55:27;;;;;;;9.60;2.07;;;7.30;99.90;;;;;;6312799;22;20186;-89
2022/03/30 12:58:02;;;;;;;8.40;1.77;;;7.30;99.90;;;;;;6311199;22;20171;-90
2022/03/30 13:00:38;;;;;;;11.10;1.70;;;7.30;99.90;;;;;;6313008;22;20176;-91
2022/03/30 13:03:14;;;;;;;5.50;1.37;;;7.30;99.90;;;;;;6311870;22;20170;-91
2022/03/30 13:05:47;;;;;;;6.67;1.53;;;7.40;99.90;;;;;;6313490;22;20246;-90
2022/03/30 13:08:21;;;;;;;4.80;1.73;;;7.30;99.90;;;;;;6308713;22;20275;-90
2022/03/30 13:10:55;;;;;;;6.63;1.63;;;7.40;99.90;;;;;;6309684;22;20188;-91
2022/03/30 13:13:29;;;;;;;4.53;1.57;;;7.30;99.90;;;;;;6311407;22;20200;-90
2022/03/30 13:16:09;;;;;;;10.43;2.00;;;7.30;99.90;;;;;;6311011;22;20172;-90
2022/03/30 13:19:03;;;;;;;9.23;2.20;;;7.30;99.90;;;;;;6313629;22;20178;-90
2022/03/30 13:21:39;;;;;;;6.73;1.40;;;7.30;99.90;;;;;;6312233;22;20166;-91
2022/03/30 13:24:13;;;;;;;7.87;1.40;;;7.30;99.90;;;;;;6311175;22;20174;-90
2022/03/30 13:26:47;;;;;;;6.47;1.57;;;7.40;99.90;;;;;;6312511;22;20173;-90
2022/03/30 13:29:18;;;;;;;4.77;1.10;;;7.40;99.90;;;;;;6312516;22;20201;-91
2022/03/30 13:31:51;;;;;;;8.27;1.40;;;7.40;99.90;;;;;;6313717;22;20171;-91
2022/03/30 13:34:28;;;;;;;10.00;1.20;;;7.40;99.90;;;;;;6313793;22;20241;-90
2022/03/30 13:36:59;;;;;;;7.63;1.20;;;7.50;99.90;;;;;;6313605;22;20183;-89
2022/03/30 13:39:31;;;;;;;6.87;1.40;;;7.50;99.90;;;;;;6313108;22;20162;-90
2022/03/30 13:42:02;;;;;;;9.80;1.43;;;7.50;99.90;;;;;;6303879;22;20214;-90
2022/03/30 13:44:33;;;;;;;8.37;1.50;;;7.50;99.90;;;;;;6282729;22;20185;-90
2022/03/30 13:47:04;;;;;;;6.07;1.70;;;7.50;99.90;;;;;;6282187;22;20230;-90
2022/03/30 13:49:44;;;;;;;7.47;1.63;;;7.50;99.90;;;;;;6282526;22;20268;-90
2022/03/30 13:52:17;;;;;;;13.17;1.87;;;7.50;99.90;;;;;;6257160;22;20229;-90
2022/03/30 13:54:48;;;;;;;8.40;1.70;;;7.60;99.90;;;;;;6283944;22;20175;-91
2022/03/30 13:57:19;;;;;;;4.10;1.13;;;7.60;99.90;;;;;;6295633;22;20179;-90
2022/03/30 13:59:51;;;;;;;4.33;1.40;;;7.60;99.90;;;;;;6303333;22;20186;-90
2022/03/30 14:02:22;;;;;;;7.67;1.37;;;7.60;99.90;;;;;;6301594;22;20179;-89
2022/03/30 14:04:56;;;;;;;5.60;1.17;;;7.60;99.90;;;;;;6303593;22;20152;-91
2022/03/30 14:07:30;;;;;;;5.30;1.17;;;7.60;99.90;;;;;;6264527;22;20189;-91
2022/03/30 14:10:01;;;;;;;7.00;1.10;;;7.60;99.90;;;;;;6283340;22;20205;-91
2022/03/30 14:12:33;;;;;;;6.17;1.30;;;7.70;99.90;;;;;;6283508;22;20184;-90
2022/03/30 14:15:05;;;;;;;4.00;0.90;;;7.60;99.90;;;;;;6287375;22;20167;-90
2022/03/30 14:17:37;;;;;;;8.83;1.73;;;7.60;99.90;;;;;;6300043;22;20199;-89
2022/03/30 14:20:12;;;;;;;7.23;1.00;;;7.60;99.90;;;;;;6299112;22;20239;-90
2022/03/30 14:22:44;;;;;;;6.13;1.47;;;7.60;99.90;;;;;;6288715;22;20167;-91
2022/03/30 14:25:18;;;;;;;4.10;1.13;;;7.60;99.90;;;;;;6283197;22;20229;-90
2022/03/30 14:27:49;;;;;;;6.33;1.43;;;7.60;99.90;;;;;;6288341;22;20174;-90
2022/03/30 14:30:20;;;;;;;2.90;1.17;;;7.60;99.90;;;;;;6282382;22;20171;-91
2022/03/30 14:32:53;;;;;;;7.13;1.50;;;7.60;99.90;;;;;;6282388;22;20336;-91
2022/03/30 14:35:27;;;;;;;6.20;1.80;;;7.60;99.90;;;;;;6281784;22;20167;-91
2022/03/30 14:37:59;;;;;;;9.20;1.80;;;7.70;99.90;;;;;;6297500;22;20186;-89
2022/03/30 14:40:34;;;;;;;5.67;1.40;;;7.60;99.90;;;;;;6293281;22;20178;-89
2022/03/30 14:43:10;;;;;;;5.00;1.53;;;7.70;99.90;;;;;;6318712;22;20204;-91
2022/03/30 14:45:43;;;;;;;9.50;1.87;;;7.70;99.90;;;;;;6334246;22;20184;-90
2022/03/30 14:50:57;;;;;;;5.63;1.37;;;7.60;99.90;;;;;;6239823;22;20204;-89
2022/03/30 14:53:37;;;;;;;7.30;1.30;;;7.60;99.90;;;;;;6299362;22;20185;-91
2022/03/30 14:56:08;;;;;;;7.40;1.33;;;7.70;99.90;;;;;;6329867;22;20155;-91
2022/03/30 14:58:41;;;;;;;10.67;1.47;;;7.80;99.90;;;;;;6303064;22;20212;-88
2022/03/30 15:09:34;;;;;;;9.23;1.30;;;7.80;99.90;;;;;;6318126;22;20255;-89
2022/03/30 15:12:07;;;;;;;5.67;1.37;;;7.90;99.90;;;;;;6326490;22;20159;-90
2022/03/30 15:14:42;;;;;;;6.70;1.33;;;7.90;99.90;;;;;;6329164;22;20169;-89
2022/03/30 15:17:16;;;;;;;7.00;1.77;;;7.80;99.90;;;;;;6324811;22;20173;-90
2022/03/30 15:19:48;;;;;;;5.13;1.50;;;7.90;99.90;;;;;;6320360;22;20488;-90
2022/03/30 15:22:21;;;;;;;4.37;1.40;;;7.90;99.90;;;;;;6313969;22;20185;-90
2022/03/30 15:24:54;;;;;;;5.80;1.70;;;7.90;99.90;;;;;;6312887;22;20177;-91
2022/03/30 15:27:25;;;;;;;6.53;1.30;;;8.00;99.90;;;;;;6317617;22;20185;-90
2022/03/30 15:29:59;;;;;;;5.00;1.07;;;8.10;99.90;;;;;;6322209;22;20194;-90
2022/03/30 15:32:31;;;;;;;5.07;1.30;;;8.10;99.90;;;;;;6297493;22;20499;-90
2022/03/30 15:35:02;;;;;;;5.63;1.30;;;8.10;99.90;;;;;;6324641;22;20178;-90
2022/03/30 15:37:38;;;;;;;5.70;1.53;;;8.20;99.90;;;;;;6288445;22;20538;-91
2022/03/30 15:40:15;;;;;;;2.10;0.90;;;8.30;99.90;;;;;;6329015;22;20162;-90
2022/03/30 15:42:51;;;;;;;6.40;1.17;;;8.40;99.90;;;;;;6328514;22;20154;-91
2022/03/30 15:45:26;;;;;;;5.53;1.40;;;8.50;99.90;;;;;;6305608;22;20181;-91